NK24 weather

Tilden Airport
Montour Falls, New York, United States

Public forecast

Using degrees Fahrenheit for public forecast. Weather courtesy of forecast.io.

Closest aviation weather report (METAR) to Tilden Airport

Closest report is Elmira Corning Regional Airport, 11.3 nm (20.9 km) S. Retrieved 2019/10/14 01:53 UTC (1 hour ago):

KELM 140153Z 00000KT 10SM CLR 06/02 A2995 RMK AO2 SLP148 T00560022

Closest aviation forecast (TAF) to Tilden Airport

Closest forecast is Elmira Corning Regional Airport, 11.3 nm (20.9 km) S. Retrieved 2019-10-14 00:30 UTC (2 hours ago):

TAF KELM 132329Z 1400/1424 23004KT P6SM SKC FM141900 27009G16KT P6SM BKN070